createdAt,value
2023-02-02T01:20:25.453Z,-1.00
2023-02-02T02:49:06.992Z,-0.80
2023-02-02T06:16:08.702Z,-1.90
2023-02-02T06:31:55.596Z,-1.50
2023-02-02T06:52:54.901Z,-1.00
2023-02-02T06:58:20.961Z,-0.90
2023-02-02T08:13:12.293Z,0.20
2023-02-02T08:23:32.490Z,0.80
2023-02-02T08:38:40.823Z,1.10
2023-02-02T09:56:28.459Z,1.80
2023-02-02T10:01:41.150Z,1.80
2023-02-02T10:07:09.346Z,2.00
2023-02-02T10:12:27.318Z,2.00
2023-02-02T10:22:04.284Z,2.10
2023-02-02T10:42:52.595Z,2.00
2023-02-02T11:04:19.520Z,2.10
2023-02-02T11:20:32.908Z,2.10
2023-02-02T11:24:54.441Z,2.00
2023-02-02T11:29:04.869Z,2.00
2023-02-02T11:33:28.874Z,2.00
2023-02-02T11:38:01.338Z,2.00
2023-02-02T11:42:09.133Z,1.80
2023-02-02T11:46:21.384Z,1.90
2023-02-02T11:50:28.881Z,1.70
2023-02-02T11:54:41.336Z,1.80
2023-02-02T11:58:47.554Z,1.80
2023-02-02T12:02:51.433Z,1.90
2023-02-02T12:06:55.037Z,1.70
2023-02-02T12:11:51.198Z,1.60
2023-02-02T12:16:09.151Z,1.70
2023-02-02T12:20:37.969Z,1.70
2023-02-02T12:24:52.165Z,1.60
2023-02-02T12:29:14.793Z,1.80
2023-02-02T12:33:48.214Z,2.00
2023-02-02T12:38:01.360Z,1.80
2023-02-02T12:42:27.911Z,1.80
2023-02-02T12:46:50.496Z,1.90
2023-02-02T12:51:13.257Z,1.90
2023-02-02T12:55:27.042Z,1.90
2023-02-02T13:00:03.525Z,2.00
2023-02-02T13:04:34.267Z,1.90
2023-02-02T13:08:43.942Z,1.90
2023-02-02T13:12:55.838Z,1.90
2023-02-02T13:17:06.789Z,2.00
2023-02-02T13:21:17.610Z,2.10
2023-02-02T13:25:27.852Z,2.10
2023-02-02T13:29:37.920Z,2.20
2023-02-02T13:34:08.583Z,2.20
2023-02-02T13:38:18.842Z,2.20
2023-02-02T13:42:38.189Z,2.20
2023-02-02T13:46:47.561Z,2.30
2023-02-02T13:51:07.626Z,2.40
2023-02-02T13:55:44.613Z,2.30
2023-02-02T14:00:02.014Z,2.20
2023-02-02T14:04:22.687Z,2.10
2023-02-02T14:08:26.988Z,1.90
2023-02-02T14:12:34.193Z,1.70
2023-02-02T14:16:50.652Z,1.60
2023-02-02T14:20:54.887Z,1.50
2023-02-02T14:25:01.285Z,1.40
2023-02-02T14:29:04.592Z,1.30
2023-02-02T14:33:42.109Z,1.30
2023-02-02T14:37:50.691Z,1.10
2023-02-02T14:42:30.577Z,1.10
2023-02-02T14:46:39.705Z,1.00
2023-02-02T14:56:07.188Z,0.70
2023-02-02T15:00:24.284Z,0.60
2023-02-02T15:04:31.592Z,0.50
2023-02-02T15:08:44.661Z,0.60
2023-02-02T15:12:50.462Z,0.50
2023-02-02T15:17:10.989Z,0.50
2023-02-02T15:21:20.952Z,0.40
2023-02-02T15:25:59.304Z,0.20
2023-02-02T15:30:16.921Z,0.20
2023-02-02T15:34:54.999Z,0.20
2023-02-02T15:39:26.802Z,0.20
2023-02-02T15:48:31.849Z,0.10
2023-02-02T15:52:38.632Z,-0.10
2023-02-02T15:57:24.096Z,-0.10
2023-02-02T16:01:36.906Z,-0.10
2023-02-02T16:05:53.763Z,-0.30
2023-02-02T16:09:57.823Z,-0.20
2023-02-02T16:14:28.153Z,-0.30
2023-02-02T16:19:08.148Z,-0.30
2023-02-02T16:23:17.117Z,-0.40
2023-02-02T16:27:23.904Z,-0.30
2023-02-02T16:31:40.419Z,-0.30
2023-02-02T16:36:12.652Z,-0.30
2023-02-02T16:40:41.792Z,-0.40
2023-02-02T16:44:57.114Z,-0.40
2023-02-02T16:49:03.010Z,-0.50
2023-02-02T16:53:24.400Z,-0.50
2023-02-02T16:57:34.296Z,-0.60
2023-02-02T17:01:46.825Z,-0.60
2023-02-02T17:05:57.751Z,-0.60
2023-02-02T17:10:32.299Z,-0.50
2023-02-02T17:14:39.751Z,-0.50
2023-02-02T17:18:45.156Z,-0.60
2023-02-02T17:22:53.446Z,-0.50
2023-02-02T17:26:58.959Z,-0.50
2023-02-02T17:31:32.283Z,-0.50
2023-02-02T17:35:52.641Z,-0.50
2023-02-02T17:39:59.610Z,-0.60
2023-02-02T17:44:11.693Z,-0.60
2023-02-02T17:48:16.661Z,-0.70
2023-02-02T17:52:51.379Z,-0.70
2023-02-02T17:56:54.958Z,-0.70
2023-02-02T18:01:03.992Z,-0.80
2023-02-02T18:09:34.963Z,-0.80
2023-02-02T18:13:39.955Z,-0.90
2023-02-02T18:17:45.654Z,-0.90
2023-02-02T18:21:51.162Z,-0.90
2023-02-02T18:25:59.256Z,-0.90
2023-02-02T18:30:02.931Z,-1.00
2023-02-02T18:34:16.695Z,-1.00
2023-02-02T18:38:22.062Z,-1.00
2023-02-02T18:42:49.513Z,-0.90
2023-02-02T18:46:53.532Z,-0.90
2023-02-02T18:51:15.929Z,-0.90
2023-02-02T18:55:40.550Z,-1.00
2023-02-02T18:59:45.439Z,-1.00
2023-02-02T19:05:03.406Z,-1.00
2023-02-02T19:09:11.328Z,-1.10
2023-02-02T19:13:19.567Z,-1.10
2023-02-02T19:17:28.419Z,-1.10
2023-02-02T19:21:44.576Z,-1.20
2023-02-02T19:25:54.222Z,-1.20
2023-02-02T19:30:03.458Z,-1.20
2023-02-02T19:34:19.929Z,-1.20
2023-02-02T19:42:56.583Z,-1.20
2023-02-02T19:47:00.806Z,-1.30
2023-02-02T19:51:45.622Z,-1.30
2023-02-02T19:55:51.934Z,-1.40
2023-02-02T20:00:17.304Z,-1.40
2023-02-02T20:04:23.427Z,-1.50
2023-02-02T20:08:47.225Z,-1.50
2023-02-02T20:13:04.970Z,-1.70
2023-02-02T20:18:06.548Z,-1.70
2023-02-02T20:22:45.577Z,-1.70
2023-02-02T20:26:49.888Z,-1.70
2023-02-02T20:30:53.614Z,-1.70
2023-02-02T20:35:03.265Z,-1.70
2023-02-02T20:39:37.872Z,-1.70
2023-02-02T20:43:52.454Z,-1.70
2023-02-02T20:47:56.187Z,-1.80
2023-02-02T20:52:05.068Z,-1.70
2023-02-02T20:56:12.884Z,-1.80
2023-02-02T21:00:24.301Z,-1.80
2023-02-02T21:04:30.345Z,-1.80
2023-02-02T21:08:39.940Z,-1.90
2023-02-02T21:12:50.087Z,-1.90
2023-02-02T21:17:14.090Z,-2.00
2023-02-02T21:21:22.402Z,-1.90
2023-02-02T21:25:29.634Z,-1.90
2023-02-02T21:29:36.914Z,-1.90
2023-02-02T21:33:48.594Z,-1.90
2023-02-02T21:38:00.067Z,-1.90
2023-02-02T21:42:23.949Z,-1.90
2023-02-02T21:46:38.404Z,-1.80
2023-02-02T21:50:45.708Z,-1.80
2023-02-02T21:54:59.230Z,-1.90
2023-02-02T21:59:13.876Z,-1.80
2023-02-02T22:03:38.954Z,-1.80
2023-02-02T22:07:46.117Z,-1.80
2023-02-02T22:11:56.243Z,-1.80
2023-02-02T22:16:04.216Z,-1.80
2023-02-02T22:20:30.209Z,-1.70
2023-02-02T22:24:33.829Z,-1.70
2023-02-02T22:28:51.691Z,-1.80
2023-02-02T22:32:55.923Z,-1.80
2023-02-02T22:37:09.957Z,-1.80
2023-02-02T22:41:13.399Z,-1.90
2023-02-02T22:45:30.431Z,-1.80
2023-02-02T22:49:33.861Z,-1.80
2023-02-02T22:53:38.767Z,-1.70
2023-02-02T22:58:07.130Z,-1.80
2023-02-02T23:02:10.693Z,-1.70
2023-02-02T23:06:14.198Z,-1.80
2023-02-02T23:10:22.025Z,-1.80
2023-02-02T23:14:25.519Z,-1.80
2023-02-02T23:18:29.039Z,-1.80
2023-02-02T23:22:33.096Z,-1.70
2023-02-02T23:27:14.671Z,-1.70
2023-02-02T23:31:19.821Z,-1.70
2023-02-02T23:35:36.924Z,-1.70
2023-02-02T23:39:41.266Z,-1.70
2023-02-02T23:44:05.530Z,-1.60
2023-02-02T23:48:10.716Z,-1.60
2023-02-02T23:53:15.660Z,-1.60
2023-02-02T23:57:19.332Z,-1.60
